createdAt,value
2019-04-30T00:01:34.003Z,88.80
2019-04-30T00:04:22.752Z,88.90
2019-04-30T00:06:52.355Z,88.80
2019-04-30T00:09:25.062Z,88.70
2019-04-30T00:11:57.918Z,88.70
2019-04-30T00:14:32.171Z,88.50
2019-04-30T00:16:57.429Z,89.10
2019-04-30T00:19:27.022Z,89.30
2019-04-30T00:22:00.060Z,90.00
2019-04-30T00:24:28.747Z,89.30
2019-04-30T00:26:58.295Z,89.40
2019-04-30T00:29:31.015Z,89.30
2019-04-30T00:32:04.223Z,89.30
2019-04-30T00:34:35.955Z,89.30
2019-04-30T00:37:07.275Z,89.50
2019-04-30T00:39:35.789Z,89.60
2019-04-30T00:42:07.430Z,89.60
2019-04-30T00:44:36.989Z,89.80
2019-04-30T00:47:08.227Z,89.70
2019-04-30T00:49:39.266Z,89.50
2019-04-30T00:52:08.826Z,89.30
2019-04-30T00:54:38.422Z,89.70
2019-04-30T00:57:08.021Z,90.00
2019-04-30T00:59:39.738Z,89.80
2019-04-30T01:02:32.277Z,89.40
2019-04-30T01:05:05.386Z,89.70
2019-04-30T01:07:35.436Z,89.50
2019-04-30T01:10:05.536Z,89.40
2019-04-30T01:12:43.894Z,89.70
2019-04-30T01:15:11.177Z,89.90
2019-04-30T01:17:45.207Z,90.00
2019-04-30T01:20:12.275Z,90.00
2019-04-30T01:22:41.871Z,90.30
2019-04-30T01:25:13.530Z,90.20
2019-04-30T01:27:45.541Z,90.30
2019-04-30T01:30:21.091Z,90.20
2019-04-30T01:32:51.961Z,90.20
2019-04-30T01:35:18.970Z,90.00
2019-04-30T01:37:48.878Z,89.90
2019-04-30T01:40:18.983Z,89.50
2019-04-30T01:42:51.646Z,89.80
2019-04-30T01:45:23.114Z,89.60
2019-04-30T01:47:51.223Z,89.70
2019-04-30T01:50:20.791Z,90.00
2019-04-30T01:52:53.605Z,90.00
2019-04-30T01:55:31.300Z,90.30
2019-04-30T01:58:19.923Z,90.40
2019-04-30T02:00:52.827Z,90.50
2019-04-30T02:03:22.404Z,90.40
2019-04-30T02:05:52.936Z,90.50
2019-04-30T02:08:22.539Z,90.50
2019-04-30T02:10:52.117Z,90.50
2019-04-30T02:13:22.679Z,90.50
2019-04-30T02:15:54.049Z,90.40
2019-04-30T02:18:23.591Z,90.50
2019-04-30T02:20:53.226Z,90.70
2019-04-30T02:23:22.787Z,90.70
2019-04-30T02:25:52.343Z,90.70
2019-04-30T02:28:21.959Z,90.60
2019-04-30T02:30:51.524Z,90.70
2019-04-30T02:33:21.350Z,90.90
2019-04-30T02:36:10.263Z,90.90
2019-04-30T02:38:43.313Z,91.00
2019-04-30T02:41:12.914Z,90.90
2019-04-30T02:43:42.580Z,90.80
2019-04-30T02:46:12.278Z,90.80
2019-04-30T02:48:41.919Z,90.80
2019-04-30T02:51:11.551Z,90.90
2019-04-30T02:54:12.463Z,90.80
2019-04-30T02:56:44.062Z,90.80
2019-04-30T02:59:13.625Z,91.00
2019-04-30T03:01:43.227Z,91.00
2019-04-30T03:04:12.998Z,90.90
2019-04-30T03:06:42.600Z,90.90
2019-04-30T03:09:12.199Z,91.00
2019-04-30T03:11:41.795Z,91.20
2019-04-30T03:14:11.342Z,91.20
2019-04-30T03:16:52.715Z,91.20
2019-04-30T03:19:40.284Z,91.30
2019-04-30T03:22:14.419Z,91.40
2019-04-30T03:24:44.081Z,91.50
2019-04-30T03:27:13.744Z,91.40
2019-04-30T03:29:43.400Z,91.40
2019-04-30T03:32:14.285Z,91.30
2019-04-30T03:34:54.909Z,91.40
2019-04-30T03:37:25.443Z,91.50
2019-04-30T03:39:55.114Z,91.50
2019-04-30T03:42:24.744Z,91.70
2019-04-30T03:44:54.350Z,91.70
2019-04-30T03:47:23.919Z,91.70
2019-04-30T03:49:53.569Z,91.50
2019-04-30T03:52:23.129Z,91.40
2019-04-30T03:54:52.693Z,91.30
2019-04-30T03:57:24.448Z,91.30
2019-04-30T03:59:54.110Z,91.30
2019-04-30T04:02:42.336Z,91.20
2019-04-30T04:05:20.010Z,91.10
2019-04-30T04:08:20.231Z,91.20
2019-04-30T04:10:57.130Z,91.20
2019-04-30T04:13:30.100Z,91.20
2019-04-30T04:16:00.146Z,91.30
2019-04-30T04:18:30.226Z,91.30
2019-04-30T04:21:08.896Z,91.50
2019-04-30T04:23:32.850Z,91.50
2019-04-30T04:26:02.787Z,91.40
2019-04-30T04:28:32.531Z,91.50
2019-04-30T04:31:04.313Z,91.20
2019-04-30T04:33:33.986Z,91.40
2019-04-30T04:36:03.568Z,91.30
2019-04-30T04:38:33.106Z,91.40
2019-04-30T04:41:03.167Z,91.30
2019-04-30T04:43:32.891Z,91.30
2019-04-30T04:46:03.306Z,91.30
2019-04-30T04:48:32.924Z,91.30
2019-04-30T04:51:02.466Z,91.30
2019-04-30T04:53:32.100Z,91.80
2019-04-30T04:56:02.688Z,91.50
2019-04-30T04:58:33.206Z,91.70
2019-04-30T05:01:03.951Z,91.80
2019-04-30T05:03:39.912Z,91.80
2019-04-30T05:06:11.692Z,91.70
2019-04-30T05:08:40.955Z,91.80
2019-04-30T05:11:10.575Z,91.70
2019-04-30T05:13:41.165Z,91.80
2019-04-30T05:16:10.799Z,91.80
2019-04-30T05:18:40.414Z,91.90
2019-04-30T05:21:10.011Z,91.90
2019-04-30T05:23:42.504Z,91.70
2019-04-30T05:26:11.114Z,91.70
2019-04-30T05:28:40.738Z,91.70
2019-04-30T05:31:10.329Z,92.00
2019-04-30T05:33:39.911Z,91.80
2019-04-30T05:36:09.555Z,91.80
2019-04-30T05:38:39.353Z,91.90
2019-04-30T05:41:09.416Z,91.70
2019-04-30T05:43:39.043Z,91.70
2019-04-30T05:46:10.946Z,91.80
2019-04-30T05:48:40.113Z,91.80
2019-04-30T05:51:09.743Z,91.90
2019-04-30T05:53:39.490Z,91.90
2019-04-30T05:56:09.548Z,92.70
2019-04-30T05:58:39.779Z,92.00
2019-04-30T06:01:09.795Z,91.90
2019-04-30T06:03:41.007Z,91.90
2019-04-30T06:06:11.525Z,92.00
2019-04-30T06:08:50.519Z,92.00
2019-04-30T06:11:39.251Z,92.10
2019-04-30T06:14:48.830Z,92.20
2019-04-30T06:17:15.674Z,92.00
2019-04-30T06:19:51.428Z,92.10
2019-04-30T06:22:21.958Z,92.20
2019-04-30T06:24:52.132Z,92.10
2019-04-30T06:27:22.369Z,92.20
2019-04-30T06:29:51.976Z,92.20
2019-04-30T06:32:22.059Z,92.30
2019-04-30T06:34:52.292Z,92.20
2019-04-30T06:37:22.339Z,92.10
2019-04-30T06:39:52.264Z,92.10
2019-04-30T06:42:22.011Z,92.10
2019-04-30T06:44:51.713Z,92.10
2019-04-30T06:47:32.530Z,92.20
2019-04-30T06:49:52.760Z,92.00
2019-04-30T06:52:23.749Z,92.10
2019-04-30T06:54:53.419Z,92.40
2019-04-30T06:57:23.557Z,92.20
2019-04-30T06:59:53.155Z,92.50
2019-04-30T07:02:22.967Z,92.70
2019-04-30T07:04:52.609Z,92.70
2019-04-30T07:07:35.793Z,92.70
2019-04-30T07:10:10.126Z,92.60
2019-04-30T07:12:58.965Z,92.50
2019-04-30T07:15:29.563Z,92.70
2019-04-30T07:17:59.656Z,92.80
2019-04-30T07:20:29.567Z,92.80
2019-04-30T07:23:02.972Z,92.70
2019-04-30T07:25:30.480Z,92.60
2019-04-30T07:28:00.034Z,92.50
2019-04-30T07:30:30.989Z,92.40
2019-04-30T07:33:00.727Z,92.60
2019-04-30T07:35:30.281Z,92.50
2019-04-30T07:38:04.723Z,92.70
2019-04-30T07:40:32.418Z,92.70
2019-04-30T07:43:02.056Z,92.60
2019-04-30T07:45:32.240Z,92.50
2019-04-30T07:48:01.960Z,92.50
2019-04-30T07:50:32.470Z,92.60
2019-04-30T07:53:06.341Z,92.70
2019-04-30T07:55:33.875Z,92.60
2019-04-30T07:58:03.475Z,92.90
2019-04-30T08:00:33.273Z,92.90
2019-04-30T08:03:10.924Z,92.80
2019-04-30T08:05:43.624Z,92.70
2019-04-30T08:08:20.978Z,92.70
2019-04-30T08:10:45.108Z,93.00
2019-04-30T08:13:16.003Z,92.70
2019-04-30T08:15:46.283Z,92.60
2019-04-30T08:18:16.008Z,92.90
2019-04-30T08:20:48.895Z,92.80
2019-04-30T08:23:34.113Z,92.70
2019-04-30T08:25:54.158Z,92.70
2019-04-30T08:28:23.973Z,92.80
2019-04-30T08:30:53.832Z,92.90
2019-04-30T08:33:29.183Z,92.90
2019-04-30T08:36:00.927Z,93.00
2019-04-30T08:38:32.706Z,93.00
2019-04-30T08:41:02.432Z,92.80
2019-04-30T08:43:32.285Z,92.60
2019-04-30T08:46:02.059Z,92.80
2019-04-30T08:48:45.504Z,92.60
2019-04-30T08:51:04.076Z,92.70
2019-04-30T08:53:34.251Z,92.80
2019-04-30T08:56:04.271Z,92.70
2019-04-30T08:58:33.899Z,92.70
2019-04-30T09:01:03.712Z,92.80
2019-04-30T09:03:33.868Z,93.10
2019-04-30T09:06:09.339Z,93.10
2019-04-30T09:08:40.735Z,93.20
2019-04-30T09:11:22.648Z,93.00
2019-04-30T09:13:42.210Z,93.00
2019-04-30T09:16:12.403Z,92.80
2019-04-30T09:18:43.764Z,92.70
2019-04-30T09:21:13.500Z,92.70
2019-04-30T09:23:49.683Z,92.90
2019-04-30T09:26:14.755Z,92.70
2019-04-30T09:28:44.803Z,92.70
2019-04-30T09:31:15.811Z,92.80
2019-04-30T09:33:44.487Z,92.60
2019-04-30T09:36:13.971Z,92.70
2019-04-30T09:38:43.591Z,92.60
2019-04-30T09:41:13.232Z,92.60
2019-04-30T09:43:44.964Z,92.60
2019-04-30T09:46:23.792Z,92.60
2019-04-30T09:48:46.183Z,92.50
2019-04-30T09:51:16.139Z,92.50
2019-04-30T09:53:55.714Z,92.30
2019-04-30T09:56:19.190Z,92.50
2019-04-30T09:58:49.292Z,92.50
2019-04-30T10:01:21.872Z,92.50
2019-04-30T10:03:51.089Z,92.80
2019-04-30T10:06:20.952Z,92.40
2019-04-30T10:08:51.327Z,92.40
2019-04-30T10:11:41.407Z,92.40
2019-04-30T10:14:11.043Z,91.90
2019-04-30T10:16:59.568Z,92.00
2019-04-30T10:19:29.404Z,91.60
2019-04-30T10:21:59.082Z,91.80
2019-04-30T10:24:29.504Z,91.50
2019-04-30T10:26:59.486Z,91.40
2019-04-30T10:29:39.544Z,91.10
2019-04-30T10:32:09.878Z,91.10
2019-04-30T10:34:39.731Z,90.60
2019-04-30T10:37:09.381Z,90.30
2019-04-30T10:39:41.102Z,90.20
2019-04-30T10:42:11.965Z,90.30
2019-04-30T10:44:42.744Z,89.60
2019-04-30T10:47:12.407Z,89.60
2019-04-30T10:49:43.252Z,89.30
2019-04-30T10:52:12.820Z,88.00
2019-04-30T10:54:42.460Z,88.40
2019-04-30T10:57:12.106Z,88.50
2019-04-30T10:59:41.684Z,89.00
2019-04-30T11:02:11.232Z,88.70
2019-04-30T11:04:40.818Z,86.90
2019-04-30T11:07:11.563Z,84.40
2019-04-30T11:09:43.203Z,83.50
2019-04-30T11:12:12.836Z,81.50
2019-04-30T11:14:43.455Z,81.80
2019-04-30T11:17:13.163Z,80.30
2019-04-30T11:19:43.003Z,79.00
2019-04-30T11:22:12.948Z,78.90
2019-04-30T11:24:56.611Z,79.20
2019-04-30T11:27:14.471Z,78.70
2019-04-30T11:29:45.144Z,76.40
2019-04-30T11:32:19.578Z,75.60
2019-04-30T11:34:49.375Z,75.60
2019-04-30T11:37:20.219Z,77.60
2019-04-30T11:39:50.265Z,76.80
2019-04-30T11:42:19.847Z,75.50
2019-04-30T11:44:49.388Z,75.30
2019-04-30T11:47:26.875Z,74.10
2019-04-30T11:49:56.444Z,73.40
2019-04-30T11:52:26.035Z,72.40
2019-04-30T11:54:55.707Z,72.10
2019-04-30T11:57:25.739Z,72.60
2019-04-30T11:59:55.482Z,69.10
2019-04-30T12:02:53.159Z,69.10
2019-04-30T12:05:22.951Z,67.50
2019-04-30T12:08:11.714Z,67.40
2019-04-30T12:10:46.571Z,68.80
2019-04-30T12:13:29.147Z,70.00
2019-04-30T12:15:59.762Z,69.20
2019-04-30T12:18:29.335Z,66.40
2019-04-30T12:21:02.745Z,66.30
2019-04-30T12:23:32.331Z,64.10
2019-04-30T12:26:02.930Z,64.10
2019-04-30T12:28:32.101Z,65.00
2019-04-30T12:31:05.904Z,65.20
2019-04-30T12:33:39.052Z,65.40
2019-04-30T12:36:09.097Z,66.60
2019-04-30T12:38:38.673Z,66.70
2019-04-30T12:41:08.240Z,66.00
2019-04-30T12:43:39.928Z,65.90
2019-04-30T12:46:09.515Z,66.50
2019-04-30T12:48:44.160Z,66.10
2019-04-30T12:51:25.444Z,65.40
2019-04-30T12:53:59.137Z,65.50
2019-04-30T12:56:47.809Z,64.60
2019-04-30T12:59:22.191Z,64.20
2019-04-30T13:01:51.900Z,64.50
2019-04-30T13:04:21.896Z,63.60
2019-04-30T13:06:52.142Z,62.70
2019-04-30T13:09:22.175Z,60.50
2019-04-30T13:11:52.477Z,57.70
2019-04-30T13:14:23.022Z,57.40
2019-04-30T13:16:52.853Z,57.00
2019-04-30T13:19:22.401Z,57.50
2019-04-30T13:21:53.120Z,58.30
2019-04-30T13:24:22.886Z,58.00
2019-04-30T13:26:52.523Z,58.40
2019-04-30T13:29:28.947Z,58.00
2019-04-30T13:31:58.624Z,58.20
2019-04-30T13:34:56.379Z,57.90
2019-04-30T13:37:38.977Z,57.40
2019-04-30T13:40:30.591Z,56.70
2019-04-30T13:43:00.492Z,55.20
2019-04-30T13:45:30.235Z,54.90
2019-04-30T13:48:15.540Z,55.30
2019-04-30T13:50:45.182Z,54.60
2019-04-30T13:54:07.162Z,52.70
2019-04-30T13:56:36.829Z,52.70
2019-04-30T13:59:25.851Z,51.90
2019-04-30T14:02:03.473Z,49.40
2019-04-30T14:05:04.551Z,50.60
2019-04-30T14:07:44.208Z,52.40
2019-04-30T14:10:14.819Z,53.80
2019-04-30T14:12:51.996Z,53.80
2019-04-30T14:15:21.645Z,54.80
2019-04-30T14:17:51.211Z,54.80
2019-04-30T14:20:20.821Z,54.10
2019-04-30T14:22:50.447Z,52.50
2019-04-30T14:25:22.143Z,52.60
2019-04-30T14:27:54.489Z,52.70
2019-04-30T14:30:23.049Z,53.50
2019-04-30T14:32:53.804Z,54.40
2019-04-30T14:35:23.488Z,55.90
2019-04-30T14:37:53.099Z,57.00
2019-04-30T14:40:23.391Z,56.30
2019-04-30T14:43:00.534Z,55.90
2019-04-30T14:45:39.641Z,55.30
2019-04-30T14:48:16.566Z,55.90
2019-04-30T14:50:48.896Z,56.60
2019-04-30T14:53:28.391Z,56.60
2019-04-30T14:56:13.856Z,56.30
2019-04-30T14:59:02.630Z,56.70
2019-04-30T15:01:43.753Z,57.50
2019-04-30T15:04:20.546Z,57.60
2019-04-30T15:06:50.653Z,57.20
2019-04-30T15:09:20.739Z,56.70
2019-04-30T15:11:50.835Z,56.00
2019-04-30T15:14:20.844Z,56.00
2019-04-30T15:16:50.780Z,55.60
2019-04-30T15:19:20.797Z,55.90
2019-04-30T15:21:51.053Z,56.00
2019-04-30T15:24:42.570Z,55.50
2019-04-30T15:27:19.022Z,56.30
2019-04-30T15:29:56.701Z,56.00
2019-04-30T15:32:28.605Z,55.90
2019-04-30T15:34:58.971Z,55.50
2019-04-30T15:37:28.869Z,55.80
2019-04-30T15:40:03.360Z,56.00
2019-04-30T15:42:34.846Z,54.80
2019-04-30T15:45:04.912Z,54.60
2019-04-30T15:47:34.930Z,54.20
2019-04-30T15:50:04.675Z,54.40
2019-04-30T15:52:34.388Z,54.60
2019-04-30T15:55:05.961Z,55.10
2019-04-30T15:57:49.428Z,54.80
2019-04-30T16:03:59.364Z,56.00
2019-04-30T16:06:51.536Z,55.20
2019-04-30T16:09:28.590Z,55.10
2019-04-30T16:12:10.411Z,55.00
2019-04-30T16:14:40.381Z,54.30
2019-04-30T16:17:20.485Z,53.70
2019-04-30T16:19:55.644Z,53.00
2019-04-30T16:22:25.380Z,52.90
2019-04-30T16:24:55.077Z,52.60
2019-04-30T16:27:24.730Z,52.50
2019-04-30T16:29:55.205Z,52.70
2019-04-30T16:32:24.888Z,53.10
2019-04-30T16:34:54.540Z,53.00
2019-04-30T16:37:24.118Z,53.40
2019-04-30T16:39:53.875Z,53.40
2019-04-30T16:42:23.629Z,53.80
2019-04-30T16:44:53.377Z,54.10
2019-04-30T16:47:23.017Z,54.50
2019-04-30T16:49:52.872Z,54.60
2019-04-30T16:52:23.833Z,54.50
2019-04-30T16:54:53.572Z,54.50
2019-04-30T16:57:23.968Z,54.90
2019-04-30T16:59:53.573Z,55.00
2019-04-30T17:02:24.899Z,55.20
2019-04-30T17:04:59.809Z,55.20
2019-04-30T17:07:41.003Z,55.50
2019-04-30T17:10:15.952Z,56.60
2019-04-30T17:13:09.272Z,56.20
2019-04-30T17:15:39.647Z,56.30
2019-04-30T17:18:12.011Z,56.00
2019-04-30T17:20:40.827Z,56.50
2019-04-30T17:23:10.477Z,56.70
2019-04-30T17:25:40.078Z,57.00
2019-04-30T17:28:09.803Z,56.80
2019-04-30T17:30:39.547Z,62.20
2019-04-30T17:33:10.220Z,60.40
2019-04-30T17:35:39.839Z,62.10
2019-04-30T17:38:09.440Z,55.90
2019-04-30T17:40:39.069Z,55.60
2019-04-30T17:43:09.704Z,55.60
2019-04-30T17:45:39.303Z,56.20
2019-04-30T17:48:08.897Z,56.10
2019-04-30T17:50:40.500Z,56.60
2019-04-30T17:53:10.083Z,56.30
2019-04-30T17:55:39.666Z,56.90
2019-04-30T17:58:09.927Z,57.50
2019-04-30T18:00:42.390Z,57.20
2019-04-30T18:03:12.576Z,57.20
2019-04-30T18:05:42.317Z,57.40
2019-04-30T18:08:12.012Z,57.40
2019-04-30T18:10:41.944Z,57.90
2019-04-30T18:13:12.795Z,58.10
2019-04-30T18:15:48.359Z,57.90
2019-04-30T18:18:28.488Z,58.00
2019-04-30T18:21:41.374Z,58.20
2019-04-30T18:25:03.630Z,58.00
2019-04-30T18:27:42.973Z,57.70
2019-04-30T18:30:04.043Z,58.00
2019-04-30T18:32:34.891Z,58.10
2019-04-30T18:35:05.682Z,58.00
2019-04-30T18:37:41.032Z,58.20
2019-04-30T18:40:10.760Z,58.80
2019-04-30T18:42:41.501Z,59.40
2019-04-30T18:45:30.607Z,60.70
2019-04-30T18:48:01.772Z,61.70
2019-04-30T18:50:33.375Z,62.60
2019-04-30T18:53:06.172Z,64.20
2019-04-30T18:55:35.747Z,65.30
2019-04-30T18:58:05.454Z,66.30
2019-04-30T19:00:41.136Z,67.30
2019-04-30T19:03:11.998Z,68.00
2019-04-30T19:05:44.152Z,68.90
2019-04-30T19:08:23.131Z,69.50
2019-04-30T19:11:36.081Z,69.70
2019-04-30T19:14:31.480Z,70.00
2019-04-30T19:17:21.028Z,70.60
2019-04-30T19:20:10.675Z,70.60
2019-04-30T19:22:40.561Z,70.60
2019-04-30T19:25:12.840Z,74.90
2019-04-30T19:27:43.017Z,71.10
2019-04-30T19:30:12.966Z,70.70
2019-04-30T19:32:45.922Z,70.80
2019-04-30T19:35:37.909Z,70.80
2019-04-30T19:38:09.189Z,70.80
2019-04-30T19:40:44.939Z,70.90
2019-04-30T19:43:14.773Z,70.90
2019-04-30T19:45:44.462Z,71.20
2019-04-30T19:48:16.088Z,71.60
2019-04-30T19:50:48.748Z,72.10
2019-04-30T19:53:22.255Z,72.30
2019-04-30T19:56:12.452Z,72.70
2019-04-30T19:58:52.538Z,72.90
2019-04-30T20:01:17.424Z,73.90
2019-04-30T20:06:59.134Z,73.70
2019-04-30T20:09:29.198Z,74.00
2019-04-30T20:11:59.759Z,74.40
2019-04-30T20:14:29.472Z,74.50
2019-04-30T20:17:01.654Z,74.70
2019-04-30T20:19:33.428Z,74.80
2019-04-30T20:22:06.105Z,75.00
2019-04-30T20:24:35.953Z,74.90
2019-04-30T20:27:08.030Z,74.80
2019-04-30T20:29:36.934Z,74.90
2019-04-30T20:32:08.665Z,74.80
2019-04-30T20:34:39.217Z,74.80
2019-04-30T20:37:08.954Z,74.90
2019-04-30T20:39:58.590Z,74.80
2019-04-30T20:42:31.723Z,75.40
2019-04-30T20:45:03.684Z,75.10
2019-04-30T20:47:33.756Z,75.20
2019-04-30T20:50:04.930Z,75.40
2019-04-30T20:52:34.599Z,75.40
2019-04-30T20:55:05.451Z,75.60
2019-04-30T20:57:36.089Z,75.50
2019-04-30T21:00:05.818Z,75.50
2019-04-30T21:02:38.710Z,75.70
2019-04-30T21:05:20.396Z,75.60
2019-04-30T21:07:50.088Z,75.80
2019-04-30T21:10:20.037Z,76.10
2019-04-30T21:12:50.873Z,76.10
2019-04-30T21:15:20.533Z,76.20
2019-04-30T21:17:51.541Z,76.40
2019-04-30T21:20:26.168Z,76.40
2019-04-30T21:23:03.989Z,76.20
2019-04-30T21:25:34.184Z,76.20
2019-04-30T21:28:03.827Z,76.10
2019-04-30T21:30:33.556Z,76.20
2019-04-30T21:33:21.060Z,76.00
2019-04-30T21:36:10.234Z,76.00
2019-04-30T21:38:49.023Z,76.10
2019-04-30T21:41:19.559Z,76.40
2019-04-30T21:44:00.826Z,76.50
2019-04-30T21:46:29.619Z,76.80
2019-04-30T21:49:00.209Z,76.90
2019-04-30T21:51:31.826Z,77.00
2019-04-30T21:54:03.750Z,76.90
2019-04-30T21:56:33.720Z,76.90
2019-04-30T21:59:03.640Z,76.90
2019-04-30T22:01:33.679Z,77.00
2019-04-30T22:04:03.451Z,77.20
2019-04-30T22:06:35.252Z,77.30
2019-04-30T22:09:06.967Z,77.30
2019-04-30T22:11:39.479Z,77.50
2019-04-30T22:14:16.066Z,77.70
2019-04-30T22:16:59.350Z,77.80
2019-04-30T22:19:30.127Z,78.10
2019-04-30T22:22:00.730Z,77.90
2019-04-30T22:24:30.760Z,78.00
2019-04-30T22:27:00.607Z,77.90
2019-04-30T22:29:38.732Z,77.90
2019-04-30T22:32:06.447Z,78.00
2019-04-30T22:34:36.079Z,78.00
2019-04-30T22:37:05.778Z,78.00
2019-04-30T22:39:49.731Z,77.90
2019-04-30T22:42:39.164Z,78.00
2019-04-30T22:45:18.874Z,78.10
2019-04-30T22:47:50.232Z,78.00
2019-04-30T22:50:19.888Z,78.10
2019-04-30T22:52:50.003Z,78.30
2019-04-30T22:55:19.785Z,78.30
2019-04-30T22:57:51.484Z,78.50
2019-04-30T23:00:36.671Z,78.40
2019-04-30T23:03:09.928Z,78.30
2019-04-30T23:05:39.659Z,78.20
2019-04-30T23:08:09.246Z,78.20
2019-04-30T23:10:38.852Z,78.10
2019-04-30T23:13:08.748Z,77.90
2019-04-30T23:15:38.593Z,78.00
2019-04-30T23:18:08.316Z,78.10
2019-04-30T23:20:37.968Z,78.40
2019-04-30T23:23:07.964Z,78.40
2019-04-30T23:25:37.684Z,78.40
2019-04-30T23:28:09.341Z,78.50
2019-04-30T23:30:39.024Z,78.60
2019-04-30T23:33:13.150Z,78.50
2019-04-30T23:35:42.779Z,78.30
2019-04-30T23:38:12.430Z,78.10
2019-04-30T23:40:47.955Z,78.00
2019-04-30T23:43:17.817Z,78.20
2019-04-30T23:45:47.871Z,78.10
2019-04-30T23:48:17.540Z,78.10
2019-04-30T23:50:47.457Z,78.10
2019-04-30T23:53:17.128Z,78.00
2019-04-30T23:55:48.896Z,78.20
2019-04-30T23:58:18.781Z,78.20
